Ashford, WA

4:21 AM PDT on September 30, 2016 (GMT -0700)
Ashford | | Change Station

Elev 1935 ft 46.74 °N, 121.97 °W | Updated 43 seconds ago

Clear
Clear
39.2 °F
Feels Like 39 °F
N
0.0
Wind Variable Wind from ESE

Today
High -- | Low -- °F
--% Chance of Precip.
Yesterday
High -- | Low -- °F
Precip. -- in
Pressure 30.06 in
Visibility 1.0 miles
Clouds Clear
Windchill 39 °F
Dew Point 39 °F
Humidity 99%
Rainfall 0.00 in
Snow Depth Not available.
7:06 AM 6:48 PM
Waning Crescent, 0% visible
SPECI KTCM 301113Z AUTO 19003KT 1SM R34/P6000FT BR CLR 04/04 A3006 RMK AO2 VIS 1/2V1 $
Pressure 30.06 in
Visibility 1.0 miles
Clouds Clear
Windchill 39 °F
Dew Point 39 °F
Humidity 99%
Rainfall 0.00 in
Snow Depth Not available.
7:06 AM 6:48 PM
Waning Crescent, 0% visible
SPECI KTCM 301113Z AUTO 19003KT 1SM R34/P6000FT BR CLR 04/04 A3006 RMK AO2 VIS 1/2V1 $

10-Day Weather Forecast

Almanac

Astronomy

Sep. 30, 2016 Rise Set
Actual Time
Civil Twilight
Nautical Twilight
Astronomical Twilight
Moon
Length of Visible Light
Length of Day
Tomorrow will be .
, % of the Moon is Illuminated

Today's Extremes

State Highs State Lows

Community

WunderPhotos

Upload Photos

1,942,694 photos uploaded!

WunderBlog® & News

Nearby

Air Quality

  Air Quality AQ Index Pollutant
Not available.

Snow Depth

Station Depth Elevation

Earthquake Activity

City Distance Mag. Time & Date
Minimum magnitude displayed is 2.5.

Coastal Water Temperatures

Place Temperature

Stations

Nearby Weather Stations

Station Location Temp. Windchill Dew Point Humidity Wind Precip. Elev Updated Type
                   

Watches & Warnings

There are currently no watches in effect.